sensor_id;sensor_type;location;lat;lon;timestamp;P1;durP1;ratioP1;P2;durP2;ratioP2
29824;SDS011;16713;52.916;12.834;2022-11-20T00:01:16;18.48;;;11.18;;
29824;SDS011;16713;52.916;12.834;2022-11-20T00:03:47;18.48;;;12.40;;
29824;SDS011;16713;52.916;12.834;2022-11-20T00:06:15;25.15;;;13.27;;
29824;SDS011;16713;52.916;12.834;2022-11-20T00:08:42;18.83;;;11.35;;
29824;SDS011;16713;52.916;12.834;2022-11-20T00:11:20;19.77;;;12.07;;
29824;SDS011;16713;52.916;12.834;2022-11-20T00:13:49;18.67;;;10.88;;
29824;SDS011;16713;52.916;12.834;2022-11-20T00:16:18;20.08;;;12.55;;
29824;SDS011;16713;52.916;12.834;2022-11-20T00:18:46;19.58;;;10.60;;
29824;SDS011;16713;52.916;12.834;2022-11-20T00:21:14;19.33;;;12.15;;
29824;SDS011;16713;52.916;12.834;2022-11-20T00:23:42;21.40;;;12.32;;
29824;SDS011;16713;52.916;12.834;2022-11-20T00:26:10;21.50;;;11.70;;
29824;SDS011;16713;52.916;12.834;2022-11-20T00:28:38;16.75;;;11.43;;
29824;SDS011;16713;52.916;12.834;2022-11-20T00:31:14;19.45;;;12.20;;
29824;SDS011;16713;52.916;12.834;2022-11-20T00:33:42;20.00;;;12.30;;
29824;SDS011;16713;52.916;12.834;2022-11-20T00:36:19;25.77;;;12.05;;
29824;SDS011;16713;52.916;12.834;2022-11-20T00:38:50;16.80;;;11.73;;
29824;SDS011;16713;52.916;12.834;2022-11-20T00:41:18;17.98;;;12.68;;
29824;SDS011;16713;52.916;12.834;2022-11-20T00:43:44;18.55;;;11.65;;
29824;SDS011;16713;52.916;12.834;2022-11-20T00:46:15;22.10;;;12.30;;
29824;SDS011;16713;52.916;12.834;2022-11-20T00:48:43;19.40;;;12.18;;
29824;SDS011;16713;52.916;12.834;2022-11-20T00:51:10;20.02;;;12.57;;
29824;SDS011;16713;52.916;12.834;2022-11-20T00:53:39;19.23;;;12.70;;
29824;SDS011;16713;52.916;12.834;2022-11-20T00:56:06;25.52;;;12.73;;
29824;SDS011;16713;52.916;12.834;2022-11-20T00:58:36;19.23;;;12.23;;
29824;SDS011;16713;52.916;12.834;2022-11-20T01:03:36;25.07;;;13.27;;
29824;SDS011;16713;52.916;12.834;2022-11-20T01:06:05;21.02;;;13.05;;
29824;SDS011;16713;52.916;12.834;2022-11-20T01:08:42;21.60;;;12.95;;
29824;SDS011;16713;52.916;12.834;2022-11-20T01:11:15;24.05;;;13.70;;
29824;SDS011;16713;52.916;12.834;2022-11-20T01:13:47;29.95;;;14.60;;
29824;SDS011;16713;52.916;12.834;2022-11-20T01:16:16;24.25;;;13.38;;
29824;SDS011;16713;52.916;12.834;2022-11-20T01:18:48;22.48;;;13.15;;
29824;SDS011;16713;52.916;12.834;2022-11-20T01:21:20;22.48;;;13.45;;
29824;SDS011;16713;52.916;12.834;2022-11-20T01:23:49;22.67;;;13.38;;
29824;SDS011;16713;52.916;12.834;2022-11-20T01:26:17;23.58;;;13.50;;
29824;SDS011;16713;52.916;12.834;2022-11-20T01:28:46;22.95;;;13.48;;
29824;SDS011;16713;52.916;12.834;2022-11-20T01:31:18;21.98;;;14.27;;
29824;SDS011;16713;52.916;12.834;2022-11-20T01:33:53;29.50;;;14.55;;
29824;SDS011;16713;52.916;12.834;2022-11-20T01:36:22;26.85;;;15.45;;
29824;SDS011;16713;52.916;12.834;2022-11-20T01:38:53;29.42;;;14.48;;
29824;SDS011;16713;52.916;12.834;2022-11-20T01:44:06;25.45;;;14.70;;
29824;SDS011;16713;52.916;12.834;2022-11-20T01:46:33;25.65;;;14.57;;
